createdAt,value
2022-09-27T00:01:10.981Z,94.94
2022-09-27T00:03:38.518Z,94.89
2022-09-27T00:06:10.896Z,94.94
2022-09-27T00:08:37.928Z,94.71
2022-09-27T00:11:06.350Z,94.62
2022-09-27T00:13:33.131Z,94.47
2022-09-27T00:16:03.231Z,94.80
2022-09-27T00:18:29.702Z,94.98
2022-09-27T00:20:56.144Z,94.95
2022-09-27T00:23:22.651Z,95.04
2022-09-27T00:25:59.270Z,94.82
2022-09-27T00:28:26.167Z,95.08
2022-09-27T00:30:53.998Z,94.96
2022-09-27T00:33:20.930Z,94.97
2022-09-27T00:35:47.662Z,95.02
2022-09-27T00:38:14.913Z,95.08
2022-09-27T00:40:41.922Z,95.43
2022-09-27T00:43:23.224Z,95.43
2022-09-27T00:46:01.852Z,95.47
2022-09-27T00:48:31.505Z,95.35
2022-09-27T00:51:01.807Z,95.33
2022-09-27T00:53:34.759Z,95.16
2022-09-27T00:56:06.592Z,95.00
2022-09-27T00:58:36.769Z,95.31
2022-09-27T01:01:07.174Z,95.31
2022-09-27T01:03:52.514Z,95.17
2022-09-27T01:06:21.275Z,95.40
2022-09-27T01:08:48.115Z,95.47
2022-09-27T01:11:26.270Z,95.39
2022-09-27T01:14:30.147Z,95.59
2022-09-27T01:17:02.625Z,95.55
2022-09-27T01:19:47.148Z,95.63
2022-09-27T01:22:55.941Z,95.58
2022-09-27T01:25:56.126Z,95.56
2022-09-27T01:28:45.964Z,95.50
2022-09-27T01:31:19.734Z,95.62
2022-09-27T01:34:03.686Z,95.49
2022-09-27T01:36:56.695Z,95.68
2022-09-27T01:39:32.183Z,95.70
2022-09-27T01:42:24.946Z,95.53
2022-09-27T01:45:01.033Z,95.49
2022-09-27T01:47:37.715Z,95.72
2022-09-27T01:50:16.722Z,95.87
2022-09-27T01:52:50.325Z,95.92
2022-09-27T01:55:19.548Z,95.83
2022-09-27T01:58:06.505Z,95.72
2022-09-27T02:00:34.764Z,95.60
2022-09-27T02:03:11.732Z,95.31
2022-09-27T02:05:45.116Z,95.51
2022-09-27T02:08:24.079Z,95.42
2022-09-27T02:10:54.727Z,95.93
2022-09-27T02:13:33.421Z,96.01
2022-09-27T02:16:24.123Z,96.01
2022-09-27T02:19:09.319Z,95.87
2022-09-27T02:21:45.097Z,96.11
2022-09-27T02:24:19.511Z,96.22
2022-09-27T02:26:49.479Z,96.27
2022-09-27T02:29:24.733Z,96.16
2022-09-27T02:31:51.786Z,96.25
2022-09-27T02:34:29.243Z,96.46
2022-09-27T02:36:55.688Z,96.47
2022-09-27T02:39:23.071Z,96.17
2022-09-27T02:41:50.016Z,96.14
2022-09-27T02:44:17.396Z,96.11
2022-09-27T02:46:52.932Z,96.09
2022-09-27T02:49:42.340Z,96.27
2022-09-27T02:52:20.746Z,96.31
2022-09-27T02:55:03.247Z,96.27
2022-09-27T02:57:58.408Z,96.40
2022-09-27T03:00:42.103Z,96.30
2022-09-27T03:03:36.714Z,96.32
2022-09-27T03:06:16.372Z,96.16
2022-09-27T03:08:44.126Z,96.40
2022-09-27T03:11:10.551Z,96.55
2022-09-27T03:13:55.885Z,96.46
2022-09-27T03:16:25.396Z,96.33
2022-09-27T03:18:51.855Z,96.09
2022-09-27T03:21:18.279Z,96.09
2022-09-27T03:23:44.722Z,96.70
2022-09-27T03:26:13.209Z,96.59
2022-09-27T03:28:39.832Z,96.54
2022-09-27T03:31:06.347Z,96.71
2022-09-27T03:33:33.533Z,96.80
2022-09-27T03:36:00.093Z,96.42
2022-09-27T03:38:26.527Z,96.15
2022-09-27T03:40:53.121Z,96.61
2022-09-27T03:43:19.585Z,96.78
2022-09-27T03:45:46.145Z,96.83
2022-09-27T03:48:12.702Z,96.78
2022-09-27T03:50:39.191Z,96.81
2022-09-27T03:53:05.834Z,96.79
2022-09-27T03:55:32.360Z,97.00
2022-09-27T03:57:58.800Z,96.84
2022-09-27T04:00:26.049Z,96.92
2022-09-27T04:02:52.555Z,97.03
2022-09-27T04:05:19.203Z,97.16
2022-09-27T04:07:48.290Z,97.35
2022-09-27T04:10:15.898Z,96.63
2022-09-27T04:12:42.580Z,96.64
2022-09-27T04:15:09.710Z,96.56
2022-09-27T04:17:36.169Z,96.50
2022-09-27T04:20:03.686Z,96.58
2022-09-27T04:22:30.331Z,96.55
2022-09-27T04:24:56.771Z,96.48
2022-09-27T04:27:23.331Z,96.65
2022-09-27T04:29:49.806Z,96.98
2022-09-27T04:32:16.222Z,96.87
2022-09-27T04:35:01.416Z,97.11
2022-09-27T04:37:28.123Z,96.74
2022-09-27T04:39:54.542Z,96.28
2022-09-27T04:42:20.963Z,96.38
2022-09-27T04:44:47.905Z,96.44
2022-09-27T04:47:14.467Z,96.34
2022-09-27T04:49:40.864Z,96.44
2022-09-27T04:52:07.311Z,96.63
2022-09-27T04:54:33.783Z,96.85
2022-09-27T04:57:00.227Z,96.69
2022-09-27T04:59:27.658Z,96.79
2022-09-27T05:01:54.084Z,96.68
2022-09-27T05:04:20.551Z,96.57
2022-09-27T05:06:46.979Z,96.61
2022-09-27T05:09:13.455Z,96.67
2022-09-27T05:11:39.906Z,96.84
2022-09-27T05:14:06.581Z,96.37
2022-09-27T05:16:34.314Z,96.62
2022-09-27T05:19:00.812Z,96.83
2022-09-27T05:21:27.491Z,96.88
2022-09-27T05:23:54.202Z,96.65
2022-09-27T05:26:20.919Z,96.59
2022-09-27T05:28:47.433Z,96.27
2022-09-27T05:31:14.418Z,96.39
2022-09-27T05:33:41.274Z,96.32
2022-09-27T05:36:09.408Z,96.25
2022-09-27T05:38:36.014Z,96.12
2022-09-27T05:41:04.091Z,96.33
2022-09-27T05:43:30.919Z,96.17
2022-09-27T05:45:58.629Z,96.35
2022-09-27T05:48:25.190Z,96.02
2022-09-27T05:50:51.773Z,96.09
2022-09-27T05:53:18.722Z,95.99
2022-09-27T05:55:45.151Z,96.03
2022-09-27T05:58:16.207Z,95.91
2022-09-27T06:00:43.673Z,95.95
2022-09-27T06:03:12.983Z,95.72
2022-09-27T06:05:40.427Z,95.60
2022-09-27T06:08:10.476Z,95.34
2022-09-27T06:10:38.258Z,95.30
2022-09-27T06:13:12.155Z,95.20
2022-09-27T06:15:40.993Z,95.18
2022-09-27T06:18:18.031Z,95.19
2022-09-27T06:20:45.268Z,95.18
2022-09-27T06:23:18.359Z,95.02
2022-09-27T06:25:46.623Z,94.94
2022-09-27T06:28:14.103Z,94.81
2022-09-27T06:30:43.004Z,94.74
2022-09-27T06:33:12.966Z,94.68
2022-09-27T06:35:40.201Z,94.84
2022-09-27T06:38:10.983Z,94.64
2022-09-27T06:40:37.612Z,94.53
2022-09-27T06:43:09.232Z,94.47
2022-09-27T06:45:37.311Z,93.86
2022-09-27T06:48:08.731Z,93.85
2022-09-27T06:50:37.419Z,93.42
2022-09-27T06:53:06.152Z,93.27
2022-09-27T06:55:32.809Z,93.18
2022-09-27T06:58:20.172Z,93.06
2022-09-27T07:00:52.742Z,93.40
2022-09-27T07:03:20.579Z,93.43
2022-09-27T07:05:58.943Z,93.07
2022-09-27T07:08:28.580Z,93.30
2022-09-27T07:10:56.669Z,93.28
2022-09-27T07:13:23.111Z,92.97
2022-09-27T07:15:49.594Z,93.04
2022-09-27T07:18:16.022Z,92.96
2022-09-27T07:20:42.482Z,93.25
2022-09-27T07:23:10.635Z,93.23
2022-09-27T07:25:37.134Z,93.32
2022-09-27T07:28:06.367Z,93.61
2022-09-27T07:30:33.594Z,93.56
2022-09-27T07:33:02.028Z,93.62
2022-09-27T07:35:28.605Z,93.51
2022-09-27T07:37:56.756Z,93.43
2022-09-27T07:40:24.121Z,93.64
2022-09-27T07:42:58.147Z,94.10
2022-09-27T07:45:25.712Z,93.88
2022-09-27T07:47:52.330Z,93.97
2022-09-27T07:50:19.365Z,94.52
2022-09-27T07:52:50.201Z,94.91
2022-09-27T07:55:17.850Z,94.81
2022-09-27T07:57:45.508Z,95.21
2022-09-27T08:00:15.091Z,94.48
2022-09-27T08:02:43.302Z,95.06
2022-09-27T08:05:11.570Z,95.41
2022-09-27T08:07:39.551Z,95.38
2022-09-27T08:10:09.542Z,94.97
2022-09-27T08:12:36.924Z,95.08
2022-09-27T08:15:04.615Z,96.19
2022-09-27T08:17:33.084Z,95.89
2022-09-27T08:20:00.232Z,96.50
2022-09-27T08:22:26.730Z,96.95
2022-09-27T08:24:53.159Z,96.88
2022-09-27T08:27:19.643Z,96.84
2022-09-27T08:29:47.395Z,97.21
2022-09-27T08:32:14.144Z,97.61
2022-09-27T08:34:40.606Z,97.70
2022-09-27T08:37:07.015Z,96.76
2022-09-27T08:39:33.617Z,96.66
2022-09-27T08:42:41.286Z,96.52
2022-09-27T08:45:24.718Z,97.36
2022-09-27T08:47:56.114Z,97.98
2022-09-27T08:50:30.180Z,97.51
2022-09-27T08:53:08.617Z,97.65
2022-09-27T08:55:44.151Z,98.37
2022-09-27T08:58:21.046Z,98.08
2022-09-27T09:00:51.929Z,97.68
2022-09-27T09:03:21.007Z,97.66
2022-09-27T09:06:10.361Z,97.35
2022-09-27T09:08:52.038Z,97.67
2022-09-27T09:11:56.083Z,98.14
2022-09-27T09:14:41.758Z,97.90
2022-09-27T09:17:24.504Z,97.62
2022-09-27T09:20:11.250Z,97.21
2022-09-27T09:23:06.524Z,98.27
2022-09-27T09:26:01.320Z,99.57
2022-09-27T09:28:47.264Z,99.45
2022-09-27T09:31:16.474Z,100.00
2022-09-27T09:33:58.103Z,100.00
2022-09-27T09:36:44.384Z,100.00
2022-09-27T09:39:20.204Z,100.00
2022-09-27T09:42:02.167Z,100.00
2022-09-27T09:44:54.154Z,100.00
2022-09-27T09:48:01.858Z,100.00
2022-09-27T09:50:43.386Z,100.00
2022-09-27T09:53:34.867Z,100.00
2022-09-27T09:56:07.181Z,100.00
2022-09-27T09:58:39.471Z,100.00
2022-09-27T10:01:18.752Z,100.00
2022-09-27T10:03:46.187Z,100.00
2022-09-27T10:06:14.445Z,100.00
2022-09-27T10:08:41.704Z,100.00
2022-09-27T10:11:20.263Z,100.00
2022-09-27T10:13:47.447Z,100.00
2022-09-27T10:16:17.023Z,100.00
2022-09-27T10:18:49.678Z,100.00
2022-09-27T10:21:27.203Z,100.00
2022-09-27T10:24:17.295Z,100.00
2022-09-27T10:26:47.120Z,100.00
2022-09-27T10:29:19.649Z,100.00
2022-09-27T10:31:48.358Z,100.00
2022-09-27T10:34:27.595Z,100.00
2022-09-27T10:37:06.399Z,100.00
2022-09-27T10:39:33.192Z,100.00
2022-09-27T10:41:59.768Z,100.00
2022-09-27T10:44:28.985Z,100.00
2022-09-27T10:47:01.740Z,100.00
2022-09-27T10:49:32.714Z,100.00
2022-09-27T10:52:02.472Z,100.00
2022-09-27T10:54:32.257Z,100.00
2022-09-27T10:57:13.997Z,100.00
2022-09-27T10:59:43.350Z,100.00
2022-09-27T11:02:22.787Z,100.00
2022-09-27T11:05:15.389Z,100.00
2022-09-27T11:07:53.442Z,100.00
2022-09-27T11:10:36.363Z,100.00
2022-09-27T11:13:21.574Z,100.00
2022-09-27T11:15:54.166Z,100.00
2022-09-27T11:18:29.780Z,100.00
2022-09-27T11:21:14.205Z,100.00
2022-09-27T11:23:58.120Z,100.00
2022-09-27T11:26:38.743Z,100.00
2022-09-27T11:29:28.053Z,100.00
2022-09-27T11:31:54.933Z,100.00
2022-09-27T11:34:39.707Z,100.00
2022-09-27T11:37:41.530Z,100.00
2022-09-27T11:40:32.880Z,100.00
2022-09-27T11:43:40.927Z,100.00
2022-09-27T11:46:40.312Z,100.00
2022-09-27T11:49:11.041Z,100.00
2022-09-27T11:51:54.131Z,100.00
2022-09-27T11:54:39.107Z,100.00
2022-09-27T11:57:18.716Z,100.00
2022-09-27T12:00:13.197Z,100.00
2022-09-27T12:02:45.921Z,100.00
2022-09-27T12:05:25.315Z,100.00
2022-09-27T12:08:09.241Z,100.00
2022-09-27T12:10:39.511Z,100.00
2022-09-27T12:13:10.509Z,100.00
2022-09-27T12:15:42.269Z,100.00
2022-09-27T12:18:26.291Z,100.00
2022-09-27T12:20:53.706Z,100.00
2022-09-27T12:23:36.422Z,100.00
2022-09-27T12:26:34.515Z,100.00
2022-09-27T12:29:26.054Z,100.00
2022-09-27T12:32:17.767Z,100.00
2022-09-27T12:35:01.448Z,100.00
2022-09-27T12:37:43.746Z,100.00
2022-09-27T12:40:21.589Z,100.00
2022-09-27T12:42:55.655Z,100.00
2022-09-27T12:45:50.726Z,100.00
2022-09-27T12:48:36.750Z,100.00
2022-09-27T12:51:11.882Z,100.00
2022-09-27T12:54:00.687Z,100.00
2022-09-27T12:56:38.354Z,100.00
2022-09-27T12:59:17.537Z,100.00
2022-09-27T13:02:09.026Z,100.00
2022-09-27T13:04:56.870Z,100.00
2022-09-27T13:07:37.609Z,100.00
2022-09-27T13:10:24.779Z,100.00
2022-09-27T13:12:54.627Z,100.00
2022-09-27T13:15:27.804Z,100.00
2022-09-27T13:17:59.818Z,100.00
2022-09-27T13:20:35.616Z,100.00
2022-09-27T13:23:03.623Z,100.00
2022-09-27T13:26:04.091Z,100.00
2022-09-27T13:28:31.768Z,100.00
2022-09-27T13:31:00.178Z,100.00
2022-09-27T13:33:29.601Z,100.00
2022-09-27T13:36:22.391Z,100.00
2022-09-27T13:39:14.288Z,100.00
2022-09-27T13:41:46.722Z,100.00
2022-09-27T13:44:40.476Z,100.00
2022-09-27T13:47:13.156Z,100.00
2022-09-27T13:49:42.840Z,100.00
2022-09-27T13:52:30.131Z,100.00
2022-09-27T13:54:58.910Z,100.00
2022-09-27T13:57:37.483Z,100.00
2022-09-27T14:00:07.769Z,100.00
2022-09-27T14:02:42.766Z,100.00
2022-09-27T14:05:20.407Z,100.00
2022-09-27T14:07:49.917Z,100.00
2022-09-27T14:10:21.271Z,100.00
2022-09-27T14:12:50.413Z,100.00
2022-09-27T14:15:27.304Z,100.00
2022-09-27T14:17:55.286Z,100.00
2022-09-27T14:20:39.855Z,100.00
2022-09-27T14:23:13.475Z,100.00
2022-09-27T14:25:46.010Z,100.00
2022-09-27T14:28:28.996Z,100.00
2022-09-27T14:31:05.928Z,100.00
2022-09-27T14:33:34.317Z,100.00
2022-09-27T14:36:23.718Z,100.00
2022-09-27T14:38:50.568Z,100.00
2022-09-27T14:41:17.231Z,100.00
2022-09-27T14:43:46.073Z,100.00
2022-09-27T14:46:27.913Z,100.00
2022-09-27T14:48:55.703Z,100.00
2022-09-27T14:51:31.279Z,100.00
2022-09-27T14:54:05.498Z,100.00
2022-09-27T14:56:39.747Z,100.00
2022-09-27T14:59:16.255Z,100.00
2022-09-27T15:01:53.260Z,100.00
2022-09-27T15:04:23.537Z,100.00
2022-09-27T15:06:50.532Z,100.00
2022-09-27T15:09:18.453Z,100.00
2022-09-27T15:11:49.406Z,100.00
2022-09-27T15:14:19.870Z,100.00
2022-09-27T15:16:48.513Z,100.00
2022-09-27T15:19:27.036Z,100.00
2022-09-27T15:21:53.769Z,100.00
2022-09-27T15:24:40.615Z,100.00
2022-09-27T15:27:22.162Z,100.00
2022-09-27T15:29:53.645Z,100.00
2022-09-27T15:32:23.596Z,100.00
2022-09-27T15:34:50.527Z,100.00
2022-09-27T15:37:33.582Z,100.00
2022-09-27T15:40:20.561Z,100.00
2022-09-27T15:42:57.883Z,100.00
2022-09-27T15:45:28.020Z,100.00
2022-09-27T15:47:54.421Z,100.00
2022-09-27T15:50:26.950Z,100.00
2022-09-27T15:52:57.087Z,100.00
2022-09-27T15:55:26.777Z,100.00
2022-09-27T15:58:00.082Z,100.00
2022-09-27T16:00:27.011Z,100.00
2022-09-27T16:02:56.948Z,100.00
2022-09-27T16:05:23.910Z,100.00
2022-09-27T16:07:51.346Z,100.00
2022-09-27T16:10:26.038Z,100.00
2022-09-27T16:12:52.814Z,100.00
2022-09-27T16:15:19.242Z,100.00
2022-09-27T16:17:45.688Z,100.00
2022-09-27T16:20:23.134Z,100.00
2022-09-27T16:22:50.126Z,100.00
2022-09-27T16:25:16.524Z,100.00
2022-09-27T16:27:43.117Z,100.00
2022-09-27T16:30:10.147Z,100.00
2022-09-27T16:32:48.063Z,100.00
2022-09-27T16:35:16.550Z,100.00
2022-09-27T16:37:43.478Z,100.00
2022-09-27T16:40:11.456Z,100.00
2022-09-27T16:42:38.438Z,100.00
2022-09-27T16:45:11.035Z,100.00
2022-09-27T16:47:39.197Z,100.00
2022-09-27T16:50:24.685Z,100.00
2022-09-27T16:52:52.468Z,100.00
2022-09-27T16:55:20.879Z,100.00
2022-09-27T16:57:47.827Z,100.00
2022-09-27T17:00:14.847Z,100.00
2022-09-27T17:02:41.413Z,100.00
2022-09-27T17:05:07.876Z,100.00
2022-09-27T17:07:34.361Z,100.00
2022-09-27T17:10:00.766Z,100.00
2022-09-27T17:12:27.192Z,100.00
2022-09-27T17:14:53.822Z,100.00
2022-09-27T17:17:20.239Z,100.00
2022-09-27T17:19:48.391Z,100.00
2022-09-27T17:22:14.848Z,100.00
2022-09-27T17:24:41.265Z,100.00
2022-09-27T17:27:07.888Z,100.00
2022-09-27T17:29:34.400Z,100.00
2022-09-27T17:32:00.898Z,100.00
2022-09-27T17:34:28.345Z,100.00
2022-09-27T17:36:55.035Z,100.00
2022-09-27T17:39:22.226Z,100.00
2022-09-27T17:41:49.844Z,100.00
2022-09-27T17:44:18.520Z,100.00
2022-09-27T17:46:46.116Z,100.00
2022-09-27T17:49:32.799Z,100.00
2022-09-27T17:51:59.589Z,100.00
2022-09-27T17:54:27.813Z,100.00
2022-09-27T17:56:56.200Z,100.00
2022-09-27T17:59:22.952Z,100.00
2022-09-27T18:01:49.564Z,100.00
2022-09-27T18:04:18.626Z,100.00
2022-09-27T18:06:46.960Z,100.00
2022-09-27T18:09:16.155Z,100.00
2022-09-27T18:11:44.099Z,100.00
2022-09-27T18:14:11.105Z,100.00
2022-09-27T18:16:42.842Z,100.00
2022-09-27T18:19:12.971Z,100.00
2022-09-27T18:21:39.691Z,100.00
2022-09-27T18:24:07.003Z,100.00
2022-09-27T18:26:39.137Z,100.00
2022-09-27T18:29:18.525Z,100.00
2022-09-27T18:31:48.652Z,100.00
2022-09-27T18:34:16.475Z,100.00
2022-09-27T18:36:44.567Z,100.00
2022-09-27T18:39:15.602Z,100.00
2022-09-27T18:41:42.228Z,100.00
2022-09-27T18:44:12.443Z,100.00
2022-09-27T18:46:39.406Z,100.00
2022-09-27T18:49:08.932Z,100.00
2022-09-27T18:51:37.579Z,100.00
2022-09-27T18:54:12.576Z,100.00
2022-09-27T18:56:39.537Z,100.00
2022-09-27T18:59:08.538Z,100.00
2022-09-27T19:01:44.966Z,100.00
2022-09-27T19:04:21.536Z,100.00
2022-09-27T19:06:50.549Z,99.41
2022-09-27T19:09:17.262Z,98.28
2022-09-27T19:11:44.255Z,97.96
2022-09-27T19:14:19.551Z,97.24
2022-09-27T19:16:47.368Z,96.01
2022-09-27T19:19:15.261Z,95.98
2022-09-27T19:21:41.727Z,96.11
2022-09-27T19:24:08.154Z,97.41
2022-09-27T19:26:34.575Z,95.68
2022-09-27T19:29:01.737Z,95.10
2022-09-27T19:31:29.563Z,94.89
2022-09-27T19:33:59.938Z,94.97
2022-09-27T19:36:27.778Z,94.83
2022-09-27T19:38:56.227Z,95.29
2022-09-27T19:41:22.639Z,94.58
2022-09-27T19:43:53.243Z,94.39
2022-09-27T19:46:20.840Z,94.08
2022-09-27T19:48:48.441Z,94.59
2022-09-27T19:51:16.154Z,94.94
2022-09-27T19:53:42.978Z,95.04
2022-09-27T19:56:10.766Z,95.10
2022-09-27T19:58:39.117Z,95.67
2022-09-27T20:01:07.351Z,95.11
2022-09-27T20:03:35.571Z,95.15
2022-09-27T20:06:03.391Z,95.49
2022-09-27T20:08:30.646Z,95.80
2022-09-27T20:11:14.407Z,96.24
2022-09-27T20:13:41.090Z,96.54
2022-09-27T20:16:19.423Z,96.50
2022-09-27T20:19:04.259Z,96.84
2022-09-27T20:21:32.712Z,97.47
2022-09-27T20:24:02.048Z,97.42
2022-09-27T20:26:31.473Z,98.35
2022-09-27T20:28:59.611Z,99.36
2022-09-27T20:31:28.693Z,99.50
2022-09-27T20:33:55.687Z,99.99
2022-09-27T20:36:23.174Z,100.00
2022-09-27T20:38:57.131Z,100.00
2022-09-27T20:41:26.203Z,99.89
2022-09-27T20:43:54.665Z,100.00
2022-09-27T20:46:22.569Z,100.00
2022-09-27T20:48:57.837Z,100.00
2022-09-27T20:51:25.779Z,100.00
2022-09-27T20:53:52.330Z,100.00
2022-09-27T20:56:27.511Z,100.00
2022-09-27T20:58:55.738Z,100.00
2022-09-27T21:01:24.464Z,100.00
2022-09-27T21:03:56.771Z,100.00
2022-09-27T21:06:24.062Z,100.00
2022-09-27T21:08:51.462Z,100.00
2022-09-27T21:11:18.890Z,100.00
2022-09-27T21:13:46.070Z,100.00
2022-09-27T21:16:18.724Z,100.00
2022-09-27T21:18:45.855Z,100.00
2022-09-27T21:21:14.090Z,100.00
2022-09-27T21:23:44.770Z,100.00
2022-09-27T21:26:17.148Z,100.00
2022-09-27T21:28:55.365Z,100.00
2022-09-27T21:31:23.489Z,100.00
2022-09-27T21:33:54.050Z,100.00
2022-09-27T21:36:22.340Z,100.00
2022-09-27T21:38:48.962Z,100.00
2022-09-27T21:41:16.271Z,100.00
2022-09-27T21:43:44.797Z,100.00
2022-09-27T21:46:16.807Z,100.00
2022-09-27T21:48:45.706Z,100.00
2022-09-27T21:51:15.275Z,100.00
2022-09-27T21:53:43.859Z,100.00
2022-09-27T21:56:11.846Z,100.00
2022-09-27T21:58:40.720Z,100.00
2022-09-27T22:01:17.189Z,100.00
2022-09-27T22:03:46.094Z,100.00
2022-09-27T22:06:15.332Z,100.00
2022-09-27T22:08:42.132Z,100.00
2022-09-27T22:11:08.954Z,100.00
2022-09-27T22:13:36.034Z,100.00
2022-09-27T22:16:07.449Z,100.00
2022-09-27T22:18:35.306Z,100.00
2022-09-27T22:21:03.343Z,100.00
2022-09-27T22:23:29.780Z,100.00
2022-09-27T22:25:57.186Z,100.00
2022-09-27T22:28:24.548Z,100.00
2022-09-27T22:30:51.131Z,100.00
2022-09-27T22:33:17.886Z,100.00
2022-09-27T22:35:48.365Z,100.00
2022-09-27T22:38:15.383Z,100.00
2022-09-27T22:40:42.218Z,100.00
2022-09-27T22:43:08.659Z,100.00
2022-09-27T22:45:35.067Z,100.00
2022-09-27T22:48:01.755Z,100.00
2022-09-27T22:50:28.216Z,100.00
2022-09-27T22:52:54.619Z,100.00
2022-09-27T22:55:21.006Z,100.00
2022-09-27T22:57:48.226Z,100.00
2022-09-27T23:00:14.759Z,100.00
2022-09-27T23:02:41.201Z,100.00
2022-09-27T23:05:08.087Z,100.00
2022-09-27T23:07:34.523Z,100.00
2022-09-27T23:10:00.891Z,99.91
2022-09-27T23:12:27.267Z,99.90
2022-09-27T23:14:53.746Z,99.59
2022-09-27T23:17:20.335Z,99.45
2022-09-27T23:19:46.728Z,99.51
2022-09-27T23:22:13.133Z,99.56
2022-09-27T23:24:39.539Z,99.37
2022-09-27T23:27:24.444Z,99.02
2022-09-27T23:29:50.908Z,99.34
2022-09-27T23:32:17.291Z,98.87
2022-09-27T23:34:43.721Z,98.78
2022-09-27T23:37:10.150Z,98.62
2022-09-27T23:39:36.593Z,98.65
2022-09-27T23:42:03.269Z,98.75
2022-09-27T23:44:29.714Z,98.05
2022-09-27T23:47:00.217Z,98.00
2022-09-27T23:49:27.822Z,98.01
2022-09-27T23:51:55.442Z,97.81
2022-09-27T23:54:21.959Z,97.98
2022-09-27T23:56:49.335Z,98.09
2022-09-27T23:59:17.001Z,98.21
